createdAt,value
2017-10-19T00:01:14.021Z,17.67
2017-10-19T00:03:41.576Z,17.40
2017-10-19T00:06:09.138Z,18.40
2017-10-19T00:08:37.443Z,17.40
2017-10-19T00:11:05.011Z,17.53
2017-10-19T00:13:32.541Z,18.10
2017-10-19T00:16:00.069Z,16.33
2017-10-19T00:18:27.633Z,16.40
2017-10-19T00:20:55.201Z,17.73
2017-10-19T00:23:22.762Z,16.50
2017-10-19T00:25:50.288Z,16.10
2017-10-19T00:28:17.848Z,16.40
2017-10-19T00:30:45.369Z,17.13
2017-10-19T00:33:13.690Z,16.30
2017-10-19T00:35:41.246Z,17.50
2017-10-19T00:38:08.780Z,18.90
2017-10-19T00:40:36.347Z,17.70
2017-10-19T00:43:03.874Z,18.17
2017-10-19T00:45:31.393Z,16.97
2017-10-19T00:47:58.961Z,16.23
2017-10-19T00:50:26.484Z,18.07
2017-10-19T00:52:54.054Z,17.40
2017-10-19T00:55:21.585Z,18.67
2017-10-19T00:57:49.145Z,17.30
2017-10-19T01:00:16.712Z,17.27
2017-10-19T01:02:44.233Z,16.50
2017-10-19T01:05:11.768Z,15.30
2017-10-19T01:07:39.317Z,17.17
2017-10-19T01:10:06.842Z,17.63
2017-10-19T01:12:35.160Z,18.20
2017-10-19T01:15:02.693Z,17.90
2017-10-19T01:17:31.021Z,18.13
2017-10-19T01:19:58.557Z,16.77
2017-10-19T01:22:26.848Z,18.50
2017-10-19T01:24:55.186Z,18.57
2017-10-19T01:27:22.709Z,18.33
2017-10-19T01:29:51.001Z,18.53
2017-10-19T01:32:19.334Z,17.80
2017-10-19T01:34:46.855Z,17.47
2017-10-19T01:37:14.393Z,15.97
2017-10-19T01:39:41.961Z,16.70
2017-10-19T01:42:09.486Z,17.90
2017-10-19T01:44:37.017Z,16.37
2017-10-19T01:47:04.594Z,17.60
2017-10-19T01:49:43.933Z,16.27
2017-10-19T01:52:11.497Z,16.03
2017-10-19T01:54:39.025Z,17.07
2017-10-19T01:57:06.599Z,18.57
2017-10-19T01:59:34.123Z,16.57
2017-10-19T02:02:01.650Z,18.00
2017-10-19T02:04:29.209Z,19.23
2017-10-19T02:06:56.744Z,16.70
2017-10-19T02:09:24.305Z,16.60
2017-10-19T02:11:51.837Z,17.70
2017-10-19T02:14:19.397Z,18.47
2017-10-19T02:16:46.927Z,16.27
2017-10-19T02:22:05.614Z,15.30
2017-10-19T02:24:33.138Z,18.70
2017-10-19T02:27:00.694Z,17.40
2017-10-19T02:29:28.991Z,17.20
2017-10-19T02:31:57.315Z,17.50
2017-10-19T02:34:24.864Z,18.13
2017-10-19T02:36:52.400Z,16.57
2017-10-19T02:39:19.954Z,18.33
2017-10-19T02:41:47.505Z,18.13
2017-10-19T02:44:15.060Z,18.60
2017-10-19T02:46:42.590Z,16.97
2017-10-19T02:49:10.126Z,17.70
2017-10-19T02:51:37.686Z,17.30
2017-10-19T02:54:05.252Z,18.00
2017-10-19T02:56:32.804Z,17.43
2017-10-19T02:59:01.130Z,16.53
2017-10-19T03:01:28.663Z,16.30
2017-10-19T03:03:56.985Z,17.67
2017-10-19T03:06:24.606Z,17.27
2017-10-19T03:08:52.183Z,17.83
2017-10-19T03:11:20.484Z,16.80
2017-10-19T03:13:48.826Z,17.80
2017-10-19T03:16:16.401Z,16.60
2017-10-19T03:18:43.934Z,17.13
2017-10-19T03:21:11.493Z,16.43
2017-10-19T03:26:30.367Z,16.87
2017-10-19T03:28:57.930Z,17.57
2017-10-19T03:31:25.553Z,17.90
2017-10-19T03:33:53.176Z,17.70
2017-10-19T03:36:20.724Z,17.10
2017-10-19T03:38:48.249Z,18.10
2017-10-19T03:41:15.817Z,18.23
2017-10-19T03:43:43.342Z,19.03
2017-10-19T03:46:10.913Z,16.90
2017-10-19T03:48:38.499Z,16.73
2017-10-19T03:51:06.046Z,17.43
2017-10-19T03:53:33.622Z,16.83
2017-10-19T03:56:01.151Z,17.23
2017-10-19T03:58:28.687Z,17.80
2017-10-19T04:00:56.254Z,18.70
2017-10-19T04:03:23.783Z,17.20
2017-10-19T04:05:52.122Z,16.50
2017-10-19T04:08:19.658Z,19.03
2017-10-19T04:10:47.967Z,18.77
2017-10-19T04:13:15.558Z,18.60
2017-10-19T04:15:43.086Z,17.67
2017-10-19T04:18:11.395Z,16.73
2017-10-19T04:20:38.954Z,18.07
2017-10-19T04:23:07.298Z,17.30
2017-10-19T04:25:34.825Z,16.00
2017-10-19T04:28:02.416Z,16.13
2017-10-19T04:30:29.942Z,16.70
2017-10-19T04:32:58.245Z,18.10
2017-10-19T04:35:26.595Z,16.20
2017-10-19T04:37:54.898Z,16.17
2017-10-19T04:40:22.441Z,17.63
2017-10-19T04:42:50.018Z,16.10
2017-10-19T04:45:17.554Z,16.57
2017-10-19T04:47:45.086Z,17.30
2017-10-19T04:50:12.646Z,17.07
2017-10-19T04:52:40.194Z,16.57
2017-10-19T04:55:07.755Z,15.40
2017-10-19T04:57:35.287Z,16.27
2017-10-19T05:00:02.878Z,16.97
2017-10-19T05:02:31.188Z,15.50
2017-10-19T05:04:58.724Z,16.07
2017-10-19T05:07:27.055Z,17.23
2017-10-19T05:09:54.601Z,16.00
2017-10-19T05:12:22.177Z,17.57
2017-10-19T05:14:49.718Z,14.80
2017-10-19T05:17:17.291Z,17.07
2017-10-19T05:19:44.837Z,17.50
2017-10-19T05:22:12.410Z,17.23
2017-10-19T05:24:39.954Z,16.87
2017-10-19T05:27:07.515Z,17.03
2017-10-19T05:29:35.324Z,17.00
2017-10-19T05:32:03.721Z,19.07
2017-10-19T05:34:32.252Z,17.70
2017-10-19T05:37:00.749Z,17.10
2017-10-19T05:39:28.407Z,17.40
2017-10-19T05:41:55.982Z,15.97
2017-10-19T05:44:23.515Z,17.40
2017-10-19T05:46:51.099Z,16.57
2017-10-19T05:49:18.650Z,17.13
2017-10-19T05:51:46.202Z,16.10
2017-10-19T05:54:13.773Z,17.00
2017-10-19T05:56:42.165Z,16.20
2017-10-19T05:59:11.432Z,16.67
2017-10-19T06:01:38.985Z,17.00
2017-10-19T06:04:06.526Z,15.73
2017-10-19T06:06:35.082Z,16.03
2017-10-19T06:09:02.619Z,15.70
2017-10-19T06:11:30.201Z,16.33
2017-10-19T06:17:01.895Z,15.87
2017-10-19T06:19:59.145Z,17.23
2017-10-19T06:22:26.784Z,16.43
2017-10-19T06:24:54.319Z,17.70
2017-10-19T06:27:22.272Z,17.50
2017-10-19T06:29:49.805Z,17.80
2017-10-19T06:32:17.427Z,17.37
2017-10-19T06:34:47.184Z,18.13
2017-10-19T06:37:14.984Z,18.63
2017-10-19T06:39:43.456Z,18.43
2017-10-19T06:42:11.119Z,18.30
2017-10-19T06:47:15.418Z,18.33
2017-10-19T06:49:43.755Z,17.37
2017-10-19T06:52:11.384Z,19.20
2017-10-19T06:54:39.686Z,20.33
2017-10-19T06:59:46.241Z,20.10
2017-10-19T07:02:13.839Z,19.90
2017-10-19T07:04:41.431Z,19.80
2017-10-19T07:07:08.987Z,20.20
2017-10-19T07:09:36.563Z,18.07
2017-10-19T07:12:04.102Z,18.83
2017-10-19T07:14:31.683Z,19.50
2017-10-19T07:16:59.227Z,18.67
2017-10-19T07:19:26.778Z,19.10
2017-10-19T07:21:55.121Z,18.70
2017-10-19T07:24:22.845Z,18.70
2017-10-19T07:26:51.192Z,19.53
2017-10-19T07:29:18.726Z,19.70
2017-10-19T07:31:46.266Z,18.10
2017-10-19T07:34:14.610Z,19.70
2017-10-19T07:36:42.151Z,21.03
2017-10-19T07:39:09.725Z,19.53
2017-10-19T07:41:37.302Z,20.43
2017-10-19T07:44:04.846Z,19.90
2017-10-19T07:46:32.401Z,21.33
2017-10-19T07:48:59.974Z,20.73
2017-10-19T07:51:27.508Z,20.37
2017-10-19T07:53:55.077Z,20.50
2017-10-19T07:56:22.615Z,20.40
2017-10-19T07:58:50.960Z,20.80
2017-10-19T08:01:19.322Z,19.33
2017-10-19T08:03:46.882Z,22.27
2017-10-19T08:06:15.193Z,21.17
2017-10-19T08:08:42.762Z,22.03
2017-10-19T08:11:10.306Z,22.57
2017-10-19T08:13:38.641Z,21.17
2017-10-19T08:16:06.207Z,20.10
2017-10-19T08:18:33.754Z,20.43
2017-10-19T08:21:01.327Z,21.70
2017-10-19T08:23:28.862Z,22.37
2017-10-19T08:25:56.439Z,22.40
2017-10-19T08:28:24.008Z,21.20
2017-10-19T08:30:51.594Z,21.23
2017-10-19T08:33:19.939Z,23.13
2017-10-19T08:35:47.484Z,21.63
2017-10-19T08:38:15.026Z,21.00
2017-10-19T08:40:43.387Z,21.23
2017-10-19T08:43:10.923Z,23.00
2017-10-19T08:45:38.491Z,20.43
2017-10-19T08:48:06.077Z,22.30
2017-10-19T08:50:33.640Z,20.73
2017-10-19T08:53:01.216Z,19.60
2017-10-19T08:55:28.767Z,17.57
2017-10-19T08:57:56.337Z,19.40
2017-10-19T09:00:24.678Z,17.50
2017-10-19T09:02:52.227Z,17.77
2017-10-19T09:05:19.797Z,15.53
2017-10-19T09:07:47.334Z,15.47
2017-10-19T09:10:15.678Z,13.80
2017-10-19T09:12:43.224Z,16.77
2017-10-19T09:15:10.802Z,14.23
2017-10-19T09:17:38.383Z,14.90
2017-10-19T09:20:05.994Z,12.83
2017-10-19T09:22:33.569Z,12.90
2017-10-19T09:25:01.192Z,12.70
2017-10-19T09:27:28.783Z,12.60
2017-10-19T09:29:56.355Z,10.33
2017-10-19T09:32:23.951Z,12.13
2017-10-19T09:34:51.523Z,11.03
2017-10-19T09:37:19.067Z,13.30
2017-10-19T09:39:46.660Z,12.60
2017-10-19T09:42:14.202Z,12.73
2017-10-19T09:44:41.793Z,10.40
2017-10-19T09:47:09.359Z,10.57
2017-10-19T09:49:36.912Z,10.20
2017-10-19T09:52:04.510Z,10.00
2017-10-19T09:54:32.058Z,7.90
2017-10-19T09:56:59.604Z,9.00
2017-10-19T09:59:27.963Z,8.80
2017-10-19T10:01:55.509Z,8.80
2017-10-19T10:04:23.082Z,9.87
2017-10-19T10:06:50.616Z,8.73
2017-10-19T10:09:18.186Z,8.43
2017-10-19T10:11:46.535Z,8.40
2017-10-19T10:14:14.115Z,7.00
2017-10-19T10:16:41.667Z,8.40
2017-10-19T10:19:09.238Z,8.07
2017-10-19T10:21:37.578Z,8.40
2017-10-19T10:24:05.898Z,7.93
2017-10-19T10:26:33.490Z,8.23
2017-10-19T10:29:01.039Z,8.27
2017-10-19T10:31:28.627Z,8.47
2017-10-19T10:33:56.166Z,7.57
2017-10-19T10:36:23.748Z,7.47
2017-10-19T10:38:51.282Z,7.50
2017-10-19T10:41:18.841Z,7.63
2017-10-19T10:43:46.431Z,7.40
2017-10-19T10:46:13.974Z,7.87
2017-10-19T10:48:41.554Z,6.60
2017-10-19T10:51:09.118Z,6.80
2017-10-19T10:53:36.650Z,6.57
2017-10-19T10:56:04.222Z,6.60
2017-10-19T10:58:31.766Z,6.80
2017-10-19T11:00:59.374Z,7.27
2017-10-19T11:03:26.957Z,7.00
2017-10-19T11:05:54.488Z,6.67
2017-10-19T11:08:22.828Z,8.10
2017-10-19T11:10:50.379Z,7.10
2017-10-19T11:13:17.913Z,6.80
2017-10-19T11:15:45.476Z,6.40
2017-10-19T11:18:13.008Z,7.63
2017-10-19T11:20:40.598Z,7.20
2017-10-19T11:23:08.170Z,6.93
2017-10-19T11:25:35.717Z,7.00
2017-10-19T11:28:03.314Z,7.00
2017-10-19T11:30:30.858Z,7.03
2017-10-19T11:32:58.441Z,6.87
2017-10-19T11:35:26.003Z,6.17
2017-10-19T11:37:53.553Z,8.53
2017-10-19T11:40:21.127Z,8.00
2017-10-19T11:42:49.486Z,6.80
2017-10-19T11:45:17.095Z,6.20
2017-10-19T11:47:45.399Z,6.50
2017-10-19T11:50:13.772Z,6.87
2017-10-19T11:52:41.329Z,6.93
2017-10-19T11:55:08.918Z,6.07
2017-10-19T11:57:36.519Z,5.40
2017-10-19T12:00:04.111Z,6.40
2017-10-19T12:02:31.799Z,6.37
2017-10-19T12:04:59.457Z,5.40
2017-10-19T12:07:27.375Z,5.97
2017-10-19T12:09:54.921Z,7.07
2017-10-19T12:12:22.507Z,5.70
2017-10-19T12:14:50.087Z,6.60
2017-10-19T12:17:17.825Z,7.63
2017-10-19T12:19:45.415Z,5.70
2017-10-19T12:22:13.733Z,7.40
2017-10-19T12:24:41.378Z,6.33
2017-10-19T12:27:08.924Z,5.50
2017-10-19T12:29:37.447Z,6.50
2017-10-19T12:32:05.836Z,5.10
2017-10-19T12:34:33.439Z,7.03
2017-10-19T12:37:01.044Z,6.00
2017-10-19T12:39:29.570Z,5.90
2017-10-19T12:41:57.893Z,6.03
2017-10-19T12:44:25.466Z,6.40
2017-10-19T12:46:53.055Z,5.33
2017-10-19T12:49:20.715Z,6.00
2017-10-19T12:51:48.265Z,6.53
2017-10-19T12:54:15.813Z,5.50
2017-10-19T12:56:44.147Z,6.20
2017-10-19T12:59:11.762Z,6.00
2017-10-19T13:01:39.355Z,6.60
2017-10-19T13:04:07.034Z,6.50
2017-10-19T13:06:34.639Z,6.13
2017-10-19T13:09:02.963Z,6.20
2017-10-19T13:11:30.534Z,6.33
2017-10-19T13:13:59.138Z,5.70
2017-10-19T13:16:26.771Z,6.10
2017-10-19T13:18:54.346Z,7.30
2017-10-19T13:21:21.904Z,5.77
2017-10-19T13:23:49.441Z,6.30
2017-10-19T13:26:17.014Z,5.67
2017-10-19T13:28:44.571Z,6.30
2017-10-19T13:31:12.878Z,5.77
2017-10-19T13:33:40.453Z,6.53
2017-10-19T13:36:08.042Z,6.30
2017-10-19T13:38:35.570Z,6.13
2017-10-19T13:41:03.903Z,6.00
2017-10-19T13:43:31.438Z,5.97
2017-10-19T13:45:59.799Z,6.30
2017-10-19T13:48:28.028Z,5.80
2017-10-19T13:50:55.635Z,5.83
2017-10-19T13:53:23.223Z,7.13
2017-10-19T13:55:51.542Z,6.60
2017-10-19T13:58:19.116Z,7.10
2017-10-19T14:00:46.725Z,6.30
2017-10-19T14:03:14.275Z,6.43
2017-10-19T14:05:41.864Z,7.37
2017-10-19T14:08:09.406Z,6.93
2017-10-19T14:10:37.710Z,5.90
2017-10-19T14:13:06.039Z,5.70
2017-10-19T14:15:33.579Z,5.70
2017-10-19T14:18:01.162Z,7.10
2017-10-19T14:20:28.731Z,6.10
2017-10-19T14:22:57.070Z,6.00
2017-10-19T14:25:25.398Z,6.20
2017-10-19T14:27:52.928Z,7.13
2017-10-19T14:30:21.265Z,5.77
2017-10-19T14:32:48.822Z,6.27
2017-10-19T14:35:17.523Z,6.80
2017-10-19T14:37:45.096Z,6.80
2017-10-19T14:40:12.644Z,7.90
2017-10-19T14:42:40.178Z,6.03
2017-10-19T14:45:07.757Z,6.30
2017-10-19T14:47:35.318Z,7.33
2017-10-19T14:50:02.900Z,7.00
2017-10-19T14:52:31.985Z,6.50
2017-10-19T14:54:59.823Z,6.40
2017-10-19T14:57:27.394Z,7.30
2017-10-19T14:59:54.932Z,7.80
2017-10-19T15:02:22.499Z,6.97
2017-10-19T15:04:50.051Z,7.00
2017-10-19T15:07:17.642Z,7.27
2017-10-19T15:09:45.176Z,7.90
2017-10-19T15:12:12.801Z,8.13
2017-10-19T15:14:41.135Z,8.00
2017-10-19T15:17:08.679Z,7.47
2017-10-19T15:19:40.448Z,7.70
2017-10-19T15:22:08.211Z,7.90
2017-10-19T15:24:36.560Z,7.37
2017-10-19T15:27:04.102Z,7.27
2017-10-19T15:29:31.675Z,7.73
2017-10-19T15:31:59.225Z,8.90
2017-10-19T15:34:27.576Z,8.13
2017-10-19T15:36:55.119Z,7.77
2017-10-19T15:39:22.667Z,7.60
2017-10-19T15:41:50.235Z,8.23
2017-10-19T15:44:18.530Z,8.03
2017-10-19T15:46:46.862Z,8.23
2017-10-19T15:49:15.713Z,8.27
2017-10-19T15:51:44.154Z,7.30
2017-10-19T15:54:11.683Z,8.00
2017-10-19T15:56:40.019Z,8.03
2017-10-19T15:59:07.607Z,9.47
2017-10-19T16:01:35.341Z,8.93
2017-10-19T16:04:02.889Z,9.03
2017-10-19T16:06:31.234Z,8.57
2017-10-19T16:08:58.779Z,8.20
2017-10-19T16:11:26.323Z,7.97
2017-10-19T16:13:54.662Z,8.73
2017-10-19T16:16:22.191Z,8.30
2017-10-19T16:18:50.503Z,10.20
2017-10-19T16:21:18.109Z,9.77
2017-10-19T16:23:45.746Z,8.87
2017-10-19T16:26:13.444Z,9.27
2017-10-19T16:28:41.995Z,9.43
2017-10-19T16:31:10.773Z,9.40
2017-10-19T16:33:39.134Z,11.13
2017-10-19T16:36:07.994Z,9.60
2017-10-19T16:38:35.635Z,9.80
2017-10-19T16:41:03.185Z,10.53
2017-10-19T16:43:30.737Z,10.40
2017-10-19T16:45:58.339Z,10.70
2017-10-19T16:48:25.900Z,10.17
2017-10-19T16:50:53.598Z,12.50
2017-10-19T16:53:21.187Z,10.83
2017-10-19T16:55:48.758Z,10.67
2017-10-19T16:58:16.300Z,10.90
2017-10-19T17:00:44.147Z,10.93
2017-10-19T17:03:11.698Z,10.40
2017-10-19T17:05:39.991Z,10.10
2017-10-19T17:08:08.325Z,10.33
2017-10-19T17:10:35.863Z,10.40
2017-10-19T17:13:03.446Z,10.90
2017-10-19T17:15:30.983Z,10.13
2017-10-19T17:17:59.403Z,11.50
2017-10-19T17:20:26.983Z,9.30
2017-10-19T17:22:54.533Z,10.83
2017-10-19T17:25:22.866Z,10.40
2017-10-19T17:27:50.399Z,11.33
2017-10-19T17:30:17.974Z,11.80
2017-10-19T17:32:45.511Z,11.67
2017-10-19T17:35:13.043Z,10.80
2017-10-19T17:37:40.611Z,13.50
2017-10-19T17:40:08.139Z,11.27
2017-10-19T17:42:36.488Z,12.03
2017-10-19T17:45:04.018Z,12.33
2017-10-19T17:47:32.314Z,12.03
2017-10-19T17:49:59.893Z,11.57
2017-10-19T17:52:27.439Z,13.40
2017-10-19T17:54:55.776Z,14.07
2017-10-19T17:57:23.302Z,12.83
2017-10-19T17:59:51.662Z,13.00
2017-10-19T18:02:19.202Z,11.90
2017-10-19T18:04:46.783Z,11.63
2017-10-19T18:07:14.339Z,12.53
2017-10-19T18:09:41.882Z,11.93
2017-10-19T18:12:10.222Z,12.73
2017-10-19T18:14:37.754Z,12.97
2017-10-19T18:17:05.330Z,13.20
2017-10-19T18:19:32.862Z,13.00
2017-10-19T18:22:00.397Z,13.27
2017-10-19T18:24:27.971Z,13.13
2017-10-19T18:26:55.518Z,12.83
2017-10-19T18:29:23.055Z,14.43
2017-10-19T18:31:50.621Z,15.03
2017-10-19T18:34:18.159Z,15.50
2017-10-19T18:36:45.747Z,14.77
2017-10-19T18:39:13.295Z,16.00
2017-10-19T18:41:40.838Z,15.33
2017-10-19T18:44:08.406Z,14.83
2017-10-19T18:46:36.699Z,14.13
2017-10-19T18:49:05.190Z,15.40
2017-10-19T18:51:32.743Z,14.80
2017-10-19T18:54:00.306Z,15.40
2017-10-19T18:56:27.889Z,16.20
2017-10-19T18:58:55.420Z,16.57
2017-10-19T19:01:22.986Z,14.53
2017-10-19T19:03:50.530Z,14.40
2017-10-19T19:06:18.867Z,13.90
2017-10-19T19:08:46.403Z,14.90
2017-10-19T19:11:13.943Z,15.80
2017-10-19T19:13:42.282Z,16.90
2017-10-19T19:16:09.831Z,15.47
2017-10-19T19:18:37.403Z,14.83
2017-10-19T19:21:05.010Z,15.50
2017-10-19T19:23:32.578Z,15.27
2017-10-19T19:26:00.134Z,16.60
2017-10-19T19:28:27.711Z,14.03
2017-10-19T19:30:55.308Z,15.50
2017-10-19T19:33:22.849Z,14.87
2017-10-19T19:35:50.427Z,13.33
2017-10-19T19:38:17.964Z,14.00
2017-10-19T19:40:46.270Z,13.47
2017-10-19T19:43:13.872Z,12.00
2017-10-19T19:45:41.459Z,15.27
2017-10-19T19:48:09.022Z,12.50
2017-10-19T19:50:36.547Z,11.10
2017-10-19T19:53:04.787Z,10.33
2017-10-19T19:55:33.099Z,10.20
2017-10-19T19:58:00.656Z,10.07
2017-10-19T20:00:28.244Z,9.20
2017-10-19T20:02:55.774Z,9.70
2017-10-19T20:05:23.303Z,10.33
2017-10-19T20:07:51.009Z,9.23
2017-10-19T20:10:18.571Z,8.70
2017-10-19T20:12:46.859Z,8.57
2017-10-19T20:15:15.191Z,9.33
2017-10-19T20:17:42.718Z,8.30
2017-10-19T20:20:10.298Z,9.23
2017-10-19T20:22:38.598Z,8.83
2017-10-19T20:25:06.146Z,8.40
2017-10-19T20:27:34.477Z,7.40
2017-10-19T20:30:02.071Z,8.50
2017-10-19T20:32:29.640Z,9.00
2017-10-19T20:34:57.170Z,7.90
2017-10-19T20:37:25.511Z,8.53
2017-10-19T20:39:53.042Z,8.27
2017-10-19T20:42:21.336Z,7.87
2017-10-19T20:44:48.894Z,9.20
2017-10-19T20:47:17.194Z,7.93
2017-10-19T20:49:44.770Z,7.77
2017-10-19T20:52:12.315Z,8.13
2017-10-19T20:54:40.628Z,9.70
2017-10-19T20:57:08.203Z,6.70
2017-10-19T20:59:36.499Z,8.33
2017-10-19T21:02:04.061Z,8.37
2017-10-19T21:04:32.426Z,8.60
2017-10-19T21:06:59.958Z,10.10
2017-10-19T21:09:28.394Z,7.90
2017-10-19T21:11:55.999Z,8.33
2017-10-19T21:14:23.700Z,7.40
2017-10-19T21:16:51.322Z,9.10
2017-10-19T21:19:19.636Z,7.63
2017-10-19T21:21:47.962Z,7.90
2017-10-19T21:24:15.498Z,8.43
2017-10-19T21:26:43.788Z,8.07
2017-10-19T21:29:12.112Z,7.43
2017-10-19T21:31:39.634Z,8.03
2017-10-19T21:34:07.978Z,8.63
2017-10-19T21:36:35.502Z,7.97
2017-10-19T21:39:03.804Z,7.60
2017-10-19T21:41:31.428Z,7.50
2017-10-19T21:43:58.976Z,7.30
2017-10-19T21:46:26.566Z,7.53
2017-10-19T21:48:54.100Z,8.73
2017-10-19T21:51:21.626Z,7.97
2017-10-19T21:53:49.195Z,8.67
2017-10-19T21:56:16.870Z,9.30
2017-10-19T21:58:44.446Z,7.97
2017-10-19T22:01:11.979Z,7.87
2017-10-19T22:03:39.650Z,7.90
2017-10-19T22:06:07.211Z,8.53
2017-10-19T22:08:34.746Z,7.73
2017-10-19T22:11:02.320Z,7.93
2017-10-19T22:13:29.855Z,7.87
2017-10-19T22:15:57.382Z,7.47
2017-10-19T22:18:26.676Z,7.80
2017-10-19T22:20:54.392Z,7.33
2017-10-19T22:23:21.923Z,7.07
2017-10-19T22:25:49.497Z,7.50
2017-10-19T22:28:17.033Z,6.90
2017-10-19T22:30:44.731Z,6.70
2017-10-19T22:33:13.082Z,7.57
2017-10-19T22:35:40.615Z,6.27
2017-10-19T22:38:08.943Z,6.87
2017-10-19T22:40:36.468Z,7.17
2017-10-19T22:43:04.027Z,6.43
2017-10-19T22:45:31.552Z,6.40
2017-10-19T22:47:59.131Z,7.00
2017-10-19T22:50:26.651Z,7.00
2017-10-19T22:52:54.177Z,6.57
2017-10-19T22:55:21.789Z,6.70
2017-10-19T22:57:49.341Z,6.40
2017-10-19T23:00:16.879Z,6.50
2017-10-19T23:02:44.439Z,6.90
2017-10-19T23:05:12.731Z,7.40
2017-10-19T23:07:40.294Z,7.63
2017-10-19T23:10:08.590Z,6.53
2017-10-19T23:12:36.918Z,5.50
2017-10-19T23:15:04.448Z,6.10
2017-10-19T23:17:32.750Z,7.17
2017-10-19T23:20:00.311Z,6.17
2017-10-19T23:22:27.839Z,6.97
2017-10-19T23:24:55.410Z,6.63
2017-10-19T23:27:22.941Z,6.80
2017-10-19T23:29:50.479Z,6.77
2017-10-19T23:32:18.032Z,6.30
2017-10-19T23:34:45.571Z,6.23
2017-10-19T23:37:13.144Z,5.80
2017-10-19T23:39:40.670Z,7.13
2017-10-19T23:42:08.972Z,7.03
2017-10-19T23:44:37.880Z,8.07
2017-10-19T23:47:06.176Z,6.33
2017-10-19T23:49:33.743Z,7.00
2017-10-19T23:52:02.039Z,6.63
2017-10-19T23:54:29.567Z,6.60
2017-10-19T23:56:57.139Z,7.10
2017-10-19T23:59:24.671Z,6.80
